sensor_id;sensor_type;location;lat;lon;timestamp;P1;durP1;ratioP1;P2;durP2;ratioP2
20890;SDS011;10605;52.968;8.844;2022-10-30T00:00:25;35.58;;;18.83;;
20890;SDS011;10605;52.968;8.844;2022-10-30T00:02:51;23.80;;;17.02;;
20890;SDS011;10605;52.968;8.844;2022-10-30T00:05:17;37.65;;;17.63;;
20890;SDS011;10605;52.968;8.844;2022-10-30T00:07:44;28.95;;;15.77;;
20890;SDS011;10605;52.968;8.844;2022-10-30T00:10:09;26.98;;;15.85;;
20890;SDS011;10605;52.968;8.844;2022-10-30T00:12:35;30.90;;;16.00;;
20890;SDS011;10605;52.968;8.844;2022-10-30T00:15:01;30.23;;;17.20;;
20890;SDS011;10605;52.968;8.844;2022-10-30T00:17:26;24.33;;;16.55;;
20890;SDS011;10605;52.968;8.844;2022-10-30T00:19:52;32.85;;;16.58;;
20890;SDS011;10605;52.968;8.844;2022-10-30T00:22:18;28.33;;;16.38;;
20890;SDS011;10605;52.968;8.844;2022-10-30T00:24:43;31.02;;;16.83;;
20890;SDS011;10605;52.968;8.844;2022-10-30T00:27:09;34.17;;;17.10;;
20890;SDS011;10605;52.968;8.844;2022-10-30T00:29:35;34.05;;;16.60;;
20890;SDS011;10605;52.968;8.844;2022-10-30T00:32:00;40.78;;;17.70;;
20890;SDS011;10605;52.968;8.844;2022-10-30T00:34:26;26.50;;;16.35;;
20890;SDS011;10605;52.968;8.844;2022-10-30T00:36:51;29.35;;;17.48;;
20890;SDS011;10605;52.968;8.844;2022-10-30T00:39:17;35.33;;;16.52;;
20890;SDS011;10605;52.968;8.844;2022-10-30T00:41:43;32.90;;;16.55;;
20890;SDS011;10605;52.968;8.844;2022-10-30T00:46:57;33.85;;;16.70;;
20890;SDS011;10605;52.968;8.844;2022-10-30T00:49:28;25.08;;;15.48;;
20890;SDS011;10605;52.968;8.844;2022-10-30T00:51:57;36.83;;;16.73;;
20890;SDS011;10605;52.968;8.844;2022-10-30T00:54:24;24.55;;;14.57;;
20890;SDS011;10605;52.968;8.844;2022-10-30T00:56:50;30.98;;;15.05;;
20890;SDS011;10605;52.968;8.844;2022-10-30T00:59:27;23.30;;;13.98;;
20890;SDS011;10605;52.968;8.844;2022-10-30T01:01:55;32.53;;;15.45;;
20890;SDS011;10605;52.968;8.844;2022-10-30T01:04:22;33.13;;;16.27;;
20890;SDS011;10605;52.968;8.844;2022-10-30T01:06:49;32.88;;;16.30;;
20890;SDS011;10605;52.968;8.844;2022-10-30T01:09:17;30.73;;;16.13;;
20890;SDS011;10605;52.968;8.844;2022-10-30T01:11:44;30.33;;;16.13;;
20890;SDS011;10605;52.968;8.844;2022-10-30T01:14:09;28.15;;;15.38;;
20890;SDS011;10605;52.968;8.844;2022-10-30T01:28:27;31.33;;;16.23;;
20890;SDS011;10605;52.968;8.844;2022-10-30T01:39:16;32.42;;;16.02;;
20890;SDS011;10605;52.968;8.844;2022-10-30T01:41:48;30.30;;;15.93;;
20890;SDS011;10605;52.968;8.844;2022-10-30T01:44:17;28.40;;;14.65;;
20890;SDS011;10605;52.968;8.844;2022-10-30T01:52:32;23.63;;;14.60;;
20890;SDS011;10605;52.968;8.844;2022-10-30T01:58:35;31.08;;;15.32;;
20890;SDS011;10605;52.968;8.844;2022-10-30T02:01:11;30.70;;;14.15;;
20890;SDS011;10605;52.968;8.844;2022-10-30T02:03:37;27.13;;;14.90;;
20890;SDS011;10605;52.968;8.844;2022-10-30T02:06:03;22.23;;;14.88;;
20890;SDS011;10605;52.968;8.844;2022-10-30T02:08:29;29.00;;;15.57;;
20890;SDS011;10605;52.968;8.844;2022-10-30T02:10:55;28.10;;;14.80;;
20890;SDS011;10605;52.968;8.844;2022-10-30T02:13:22;28.67;;;15.88;;
20890;SDS011;10605;52.968;8.844;2022-10-30T02:15:47;34.75;;;15.32;;
20890;SDS011;10605;52.968;8.844;2022-10-30T02:18:14;29.45;;;15.98;;
20890;SDS011;10605;52.968;8.844;2022-10-30T02:20:40;30.30;;;15.25;;
20890;SDS011;10605;52.968;8.844;2022-10-30T02:23:06;36.58;;;15.98;;
20890;SDS011;10605;52.968;8.844;2022-10-30T02:25:32;33.83;;;14.85;;
20890;SDS011;10605;52.968;8.844;2022-10-30T02:27:59;23.40;;;14.02;;
20890;SDS011;10605;52.968;8.844;2022-10-30T02:30:25;27.73;;;14.02;;
20890;SDS011;10605;52.968;8.844;2022-10-30T02:32:50;27.13;;;14.05;;
20890;SDS011;10605;52.968;8.844;2022-10-30T02:35:16;34.60;;;14.32;;
20890;SDS011;10605;52.968;8.844;2022-10-30T02:37:42;29.77;;;13.75;;
20890;SDS011;10605;52.968;8.844;2022-10-30T02:40:07;28.83;;;13.02;;
20890;SDS011;10605;52.968;8.844;2022-10-30T02:42:33;36.97;;;13.23;;
20890;SDS011;10605;52.968;8.844;2022-10-30T02:44:59;22.80;;;12.32;;
20890;SDS011;10605;52.968;8.844;2022-10-30T02:47:25;18.90;;;11.93;;
20890;SDS011;10605;52.968;8.844;2022-10-30T02:49:52;17.20;;;10.80;;
20890;SDS011;10605;52.968;8.844;2022-10-30T02:52:17;23.92;;;11.32;;
20890;SDS011;10605;52.968;8.844;2022-10-30T02:54:43;20.40;;;11.57;;
20890;SDS011;10605;52.968;8.844;2022-10-30T02:57:08;22.13;;;11.10;;
20890;SDS011;10605;52.968;8.844;2022-10-30T02:59:34;21.45;;;9.75;;
20890;SDS011;10605;52.968;8.844;2022-10-30T03:01:59;23.70;;;9.93;;
20890;SDS011;10605;52.968;8.844;2022-10-30T03:04:25;21.80;;;9.98;;
20890;SDS011;10605;52.968;8.844;2022-10-30T03:06:51;17.83;;;10.40;;
20890;SDS011;10605;52.968;8.844;2022-10-30T03:09:16;20.33;;;10.27;;
20890;SDS011;10605;52.968;8.844;2022-10-30T03:11:42;18.05;;;10.77;;
20890;SDS011;10605;52.968;8.844;2022-10-30T03:14:08;18.40;;;10.07;;
20890;SDS011;10605;52.968;8.844;2022-10-30T03:16:35;23.10;;;11.23;;
20890;SDS011;10605;52.968;8.844;2022-10-30T03:19:04;24.05;;;10.25;;
20890;SDS011;10605;52.968;8.844;2022-10-30T03:21:29;21.40;;;11.30;;
20890;SDS011;10605;52.968;8.844;2022-10-30T03:23:55;19.90;;;10.15;;
20890;SDS011;10605;52.968;8.844;2022-10-30T03:26:21;20.85;;;10.77;;
20890;SDS011;10605;52.968;8.844;2022-10-30T03:28:47;16.35;;;10.10;;
20890;SDS011;10605;52.968;8.844;2022-10-30T03:31:13;20.45;;;10.48;;
20890;SDS011;10605;52.968;8.844;2022-10-30T03:33:41;21.63;;;10.88;;
20890;SDS011;10605;52.968;8.844;2022-10-30T03:36:08;23.08;;;11.30;;
20890;SDS011;10605;52.968;8.844;2022-10-30T03:38:35;13.90;;;10.52;;
20890;SDS011;10605;52.968;8.844;2022-10-30T03:41:01;19.52;;;9.50;;
20890;SDS011;10605;52.968;8.844;2022-10-30T03:43:27;18.80;;;10.88;;
20890;SDS011;10605;52.968;8.844;2022-10-30T03:45:53;15.00;;;10.15;;
20890;SDS011;10605;52.968;8.844;2022-10-30T03:48:21;21.80;;;10.02;;
20890;SDS011;10605;52.968;8.844;2022-10-30T03:50:48;17.30;;;9.73;;
20890;SDS011;10605;52.968;8.844;2022-10-30T03:53:15;26.38;;;10.00;;
20890;SDS011;10605;52.968;8.844;2022-10-30T03:55:41;21.00;;;10.43;;
20890;SDS011;10605;52.968;8.844;2022-10-30T03:58:07;26.10;;;10.77;;
20890;SDS011;10605;52.968;8.844;2022-10-30T04:00:33;19.25;;;10.18;;
20890;SDS011;10605;52.968;8.844;2022-10-30T04:02:59;19.52;;;10.20;;
20890;SDS011;10605;52.968;8.844;2022-10-30T04:05:26;17.63;;;9.68;;
20890;SDS011;10605;52.968;8.844;2022-10-30T04:07:56;19.80;;;9.85;;
20890;SDS011;10605;52.968;8.844;2022-10-30T04:10:23;26.63;;;10.20;;
20890;SDS011;10605;52.968;8.844;2022-10-30T04:12:49;16.27;;;10.02;;
20890;SDS011;10605;52.968;8.844;2022-10-30T04:15:16;14.55;;;9.48;;
20890;SDS011;10605;52.968;8.844;2022-10-30T04:17:49;19.20;;;10.40;;
20890;SDS011;10605;52.968;8.844;2022-10-30T04:20:15;22.42;;;10.13;;
20890;SDS011;10605;52.968;8.844;2022-10-30T04:22:42;24.10;;;11.05;;
20890;SDS011;10605;52.968;8.844;2022-10-30T04:25:07;16.80;;;11.25;;
20890;SDS011;10605;52.968;8.844;2022-10-30T04:27:42;19.77;;;10.85;;
20890;SDS011;10605;52.968;8.844;2022-10-30T04:30:09;26.00;;;10.68;;
20890;SDS011;10605;52.968;8.844;2022-10-30T04:32:36;21.05;;;10.82;;
20890;SDS011;10605;52.968;8.844;2022-10-30T04:35:13;25.90;;;11.13;;
20890;SDS011;10605;52.968;8.844;2022-10-30T04:37:40;17.17;;;11.38;;
20890;SDS011;10605;52.968;8.844;2022-10-30T04:40:07;20.85;;;10.43;;
20890;SDS011;10605;52.968;8.844;2022-10-30T04:42:33;18.35;;;10.75;;
20890;SDS011;10605;52.968;8.844;2022-10-30T04:44:59;16.80;;;9.93;;
20890;SDS011;10605;52.968;8.844;2022-10-30T04:47:26;20.98;;;10.27;;
20890;SDS011;10605;52.968;8.844;2022-10-30T04:49:52;16.73;;;10.45;;
20890;SDS011;10605;52.968;8.844;2022-10-30T04:52:18;19.30;;;10.55;;
20890;SDS011;10605;52.968;8.844;2022-10-30T04:54:43;26.05;;;10.85;;
20890;SDS011;10605;52.968;8.844;2022-10-30T04:57:09;18.40;;;10.30;;
20890;SDS011;10605;52.968;8.844;2022-10-30T04:59:34;16.15;;;10.02;;
20890;SDS011;10605;52.968;8.844;2022-10-30T05:02:00;21.13;;;10.90;;
20890;SDS011;10605;52.968;8.844;2022-10-30T05:04:26;21.13;;;10.63;;
20890;SDS011;10605;52.968;8.844;2022-10-30T05:06:51;16.33;;;10.30;;
20890;SDS011;10605;52.968;8.844;2022-10-30T05:09:17;21.75;;;11.23;;
20890;SDS011;10605;52.968;8.844;2022-10-30T05:11:42;25.70;;;10.70;;
20890;SDS011;10605;52.968;8.844;2022-10-30T05:14:08;24.70;;;11.05;;
20890;SDS011;10605;52.968;8.844;2022-10-30T05:16:34;14.75;;;11.38;;
20890;SDS011;10605;52.968;8.844;2022-10-30T05:18:59;19.08;;;10.63;;
20890;SDS011;10605;52.968;8.844;2022-10-30T05:21:25;17.45;;;10.35;;
20890;SDS011;10605;52.968;8.844;2022-10-30T05:23:50;27.65;;;12.10;;
20890;SDS011;10605;52.968;8.844;2022-10-30T05:26:16;20.00;;;10.57;;
20890;SDS011;10605;52.968;8.844;2022-10-30T05:28:42;23.48;;;11.60;;
20890;SDS011;10605;52.968;8.844;2022-10-30T05:31:07;21.27;;;11.32;;
20890;SDS011;10605;52.968;8.844;2022-10-30T05:33:33;24.63;;;11.20;;
20890;SDS011;10605;52.968;8.844;2022-10-30T05:35:58;17.55;;;10.95;;
20890;SDS011;10605;52.968;8.844;2022-10-30T05:38:24;21.08;;;10.70;;
20890;SDS011;10605;52.968;8.844;2022-10-30T05:40:50;23.80;;;11.00;;
20890;SDS011;10605;52.968;8.844;2022-10-30T05:43:15;20.65;;;11.10;;
20890;SDS011;10605;52.968;8.844;2022-10-30T05:45:41;29.90;;;10.98;;
20890;SDS011;10605;52.968;8.844;2022-10-30T05:48:07;20.02;;;10.98;;
20890;SDS011;10605;52.968;8.844;2022-10-30T05:50:32;24.70;;;12.02;;
20890;SDS011;10605;52.968;8.844;2022-10-30T05:52:59;20.50;;;11.50;;
20890;SDS011;10605;52.968;8.844;2022-10-30T05:55:26;24.67;;;12.73;;
20890;SDS011;10605;52.968;8.844;2022-10-30T05:57:58;22.75;;;12.32;;
20890;SDS011;10605;52.968;8.844;2022-10-30T06:00:26;19.20;;;12.38;;
20890;SDS011;10605;52.968;8.844;2022-10-30T06:03:03;26.35;;;13.35;;
20890;SDS011;10605;52.968;8.844;2022-10-30T06:05:31;24.73;;;11.23;;
20890;SDS011;10605;52.968;8.844;2022-10-30T06:07:58;21.13;;;12.23;;
20890;SDS011;10605;52.968;8.844;2022-10-30T06:10:24;18.52;;;11.60;;
20890;SDS011;10605;52.968;8.844;2022-10-30T06:12:54;26.48;;;12.38;;
20890;SDS011;10605;52.968;8.844;2022-10-30T06:15:21;29.13;;;12.20;;
20890;SDS011;10605;52.968;8.844;2022-10-30T06:17:47;25.52;;;11.07;;
20890;SDS011;10605;52.968;8.844;2022-10-30T06:20:17;25.95;;;11.95;;
20890;SDS011;10605;52.968;8.844;2022-10-30T06:25:22;18.75;;;12.25;;
20890;SDS011;10605;52.968;8.844;2022-10-30T06:27:48;22.77;;;11.32;;
20890;SDS011;10605;52.968;8.844;2022-10-30T06:30:14;23.67;;;11.57;;
20890;SDS011;10605;52.968;8.844;2022-10-30T06:32:41;22.70;;;12.00;;
20890;SDS011;10605;52.968;8.844;2022-10-30T06:35:06;24.63;;;11.90;;
20890;SDS011;10605;52.968;8.844;2022-10-30T06:37:35;18.17;;;10.32;;
20890;SDS011;10605;52.968;8.844;2022-10-30T06:40:03;17.58;;;10.80;;
20890;SDS011;10605;52.968;8.844;2022-10-30T06:42:33;18.30;;;10.55;;
20890;SDS011;10605;52.968;8.844;2022-10-30T06:45:10;13.68;;;10.18;;
20890;SDS011;10605;52.968;8.844;2022-10-30T06:47:37;19.38;;;10.38;;
20890;SDS011;10605;52.968;8.844;2022-10-30T06:50:03;20.77;;;10.35;;
20890;SDS011;10605;52.968;8.844;2022-10-30T06:52:30;15.23;;;10.30;;
20890;SDS011;10605;52.968;8.844;2022-10-30T06:54:55;25.38;;;10.80;;
20890;SDS011;10605;52.968;8.844;2022-10-30T06:57:21;16.73;;;11.05;;
20890;SDS011;10605;52.968;8.844;2022-10-30T06:59:46;23.58;;;12.30;;
20890;SDS011;10605;52.968;8.844;2022-10-30T07:02:12;28.15;;;11.98;;
20890;SDS011;10605;52.968;8.844;2022-10-30T07:04:38;26.98;;;13.77;;
20890;SDS011;10605;52.968;8.844;2022-10-30T07:07:03;35.28;;;12.73;;
20890;SDS011;10605;52.968;8.844;2022-10-30T07:09:29;22.48;;;12.35;;
20890;SDS011;10605;52.968;8.844;2022-10-30T07:11:55;21.30;;;12.00;;
20890;SDS011;10605;52.968;8.844;2022-10-30T07:14:20;26.98;;;11.57;;
20890;SDS011;10605;52.968;8.844;2022-10-30T07:16:46;23.73;;;10.88;;
20890;SDS011;10605;52.968;8.844;2022-10-30T07:19:12;14.02;;;10.38;;
20890;SDS011;10605;52.968;8.844;2022-10-30T07:21:37;21.83;;;9.82;;
20890;SDS011;10605;52.968;8.844;2022-10-30T07:24:03;21.55;;;9.52;;
20890;SDS011;10605;52.968;8.844;2022-10-30T07:26:29;17.52;;;8.75;;
20890;SDS011;10605;52.968;8.844;2022-10-30T07:28:55;16.17;;;8.95;;
20890;SDS011;10605;52.968;8.844;2022-10-30T07:31:20;12.15;;;8.38;;
20890;SDS011;10605;52.968;8.844;2022-10-30T07:33:46;17.38;;;8.90;;
20890;SDS011;10605;52.968;8.844;2022-10-30T07:36:12;17.38;;;8.00;;
20890;SDS011;10605;52.968;8.844;2022-10-30T07:38:38;16.70;;;8.48;;
20890;SDS011;10605;52.968;8.844;2022-10-30T07:41:04;12.98;;;8.07;;
20890;SDS011;10605;52.968;8.844;2022-10-30T07:43:30;20.92;;;8.07;;
20890;SDS011;10605;52.968;8.844;2022-10-30T07:45:55;11.93;;;7.35;;
20890;SDS011;10605;52.968;8.844;2022-10-30T07:48:21;17.52;;;7.70;;
20890;SDS011;10605;52.968;8.844;2022-10-30T07:50:47;9.43;;;7.13;;
20890;SDS011;10605;52.968;8.844;2022-10-30T07:53:13;15.38;;;7.25;;
20890;SDS011;10605;52.968;8.844;2022-10-30T07:55:43;16.85;;;6.85;;
20890;SDS011;10605;52.968;8.844;2022-10-30T07:58:09;9.32;;;6.93;;
20890;SDS011;10605;52.968;8.844;2022-10-30T08:00:34;12.45;;;6.82;;
20890;SDS011;10605;52.968;8.844;2022-10-30T08:03:00;20.60;;;7.07;;
20890;SDS011;10605;52.968;8.844;2022-10-30T08:05:26;17.45;;;6.78;;
20890;SDS011;10605;52.968;8.844;2022-10-30T08:07:51;11.82;;;7.25;;
20890;SDS011;10605;52.968;8.844;2022-10-30T08:10:17;19.15;;;7.38;;
20890;SDS011;10605;52.968;8.844;2022-10-30T08:12:43;15.80;;;8.02;;
20890;SDS011;10605;52.968;8.844;2022-10-30T08:15:10;16.35;;;8.60;;
20890;SDS011;10605;52.968;8.844;2022-10-30T08:17:46;22.23;;;13.07;;
20890;SDS011;10605;52.968;8.844;2022-10-30T08:20:17;13.88;;;11.43;;
20890;SDS011;10605;52.968;8.844;2022-10-30T08:22:48;21.67;;;9.95;;
20890;SDS011;10605;52.968;8.844;2022-10-30T08:25:18;22.17;;;12.80;;
20890;SDS011;10605;52.968;8.844;2022-10-30T08:27:49;20.50;;;11.80;;
20890;SDS011;10605;52.968;8.844;2022-10-30T08:30:23;22.92;;;13.43;;
20890;SDS011;10605;52.968;8.844;2022-10-30T08:32:50;18.75;;;9.98;;
20890;SDS011;10605;52.968;8.844;2022-10-30T08:35:16;15.02;;;8.30;;
20890;SDS011;10605;52.968;8.844;2022-10-30T08:37:42;20.98;;;8.38;;
20890;SDS011;10605;52.968;8.844;2022-10-30T08:40:09;14.55;;;7.82;;
20890;SDS011;10605;52.968;8.844;2022-10-30T08:42:36;14.00;;;7.88;;
20890;SDS011;10605;52.968;8.844;2022-10-30T08:45:12;18.23;;;7.55;;
20890;SDS011;10605;52.968;8.844;2022-10-30T08:47:54;14.65;;;7.22;;
20890;SDS011;10605;52.968;8.844;2022-10-30T08:50:56;11.68;;;7.30;;
20890;SDS011;10605;52.968;8.844;2022-10-30T08:53:24;11.27;;;6.43;;
20890;SDS011;10605;52.968;8.844;2022-10-30T08:56:00;25.17;;;7.13;;
20890;SDS011;10605;52.968;8.844;2022-10-30T08:58:26;17.50;;;7.60;;
20890;SDS011;10605;52.968;8.844;2022-10-30T09:00:58;18.38;;;7.55;;
20890;SDS011;10605;52.968;8.844;2022-10-30T09:04:15;16.75;;;7.38;;
20890;SDS011;10605;52.968;8.844;2022-10-30T09:07:16;13.90;;;7.63;;
20890;SDS011;10605;52.968;8.844;2022-10-30T09:13:51;14.77;;;7.40;;
20890;SDS011;10605;52.968;8.844;2022-10-30T09:16:16;17.90;;;8.30;;
20890;SDS011;10605;52.968;8.844;2022-10-30T09:18:46;16.10;;;7.40;;
20890;SDS011;10605;52.968;8.844;2022-10-30T09:24:04;13.82;;;7.85;;
20890;SDS011;10605;52.968;8.844;2022-10-30T09:27:00;14.18;;;7.32;;
20890;SDS011;10605;52.968;8.844;2022-10-30T09:33:01;21.90;;;8.02;;
20890;SDS011;10605;52.968;8.844;2022-10-30T09:35:41;14.07;;;7.25;;
20890;SDS011;10605;52.968;8.844;2022-10-30T09:42:39;22.58;;;7.30;;
20890;SDS011;10605;52.968;8.844;2022-10-30T09:45:38;21.40;;;8.15;;
20890;SDS011;10605;52.968;8.844;2022-10-30T10:19:20;12.25;;;6.85;;
20890;SDS011;10605;52.968;8.844;2022-10-30T10:33:08;19.85;;;6.65;;
20890;SDS011;10605;52.968;8.844;2022-10-30T10:56:32;13.85;;;7.60;;
20890;SDS011;10605;52.968;8.844;2022-10-30T11:05:55;20.30;;;7.00;;
20890;SDS011;10605;52.968;8.844;2022-10-30T11:12:10;14.75;;;7.43;;
20890;SDS011;10605;52.968;8.844;2022-10-30T11:14:47;13.32;;;7.13;;
20890;SDS011;10605;52.968;8.844;2022-10-30T11:17:44;12.80;;;6.82;;
20890;SDS011;10605;52.968;8.844;2022-10-30T11:20:58;16.73;;;7.82;;
20890;SDS011;10605;52.968;8.844;2022-10-30T11:23:42;18.25;;;8.18;;
20890;SDS011;10605;52.968;8.844;2022-10-30T11:29:58;10.88;;;7.32;;
20890;SDS011;10605;52.968;8.844;2022-10-30T11:33:37;14.48;;;6.97;;
20890;SDS011;10605;52.968;8.844;2022-10-30T11:40:02;21.20;;;7.40;;
20890;SDS011;10605;52.968;8.844;2022-10-30T11:43:24;13.55;;;7.07;;
20890;SDS011;10605;52.968;8.844;2022-10-30T12:06:45;18.85;;;6.40;;
20890;SDS011;10605;52.968;8.844;2022-10-30T12:09:20;19.35;;;7.00;;
20890;SDS011;10605;52.968;8.844;2022-10-30T12:12:31;18.05;;;6.20;;
20890;SDS011;10605;52.968;8.844;2022-10-30T12:18:03;14.70;;;6.05;;
20890;SDS011;10605;52.968;8.844;2022-10-30T12:20:50;14.85;;;5.57;;
20890;SDS011;10605;52.968;8.844;2022-10-30T12:23:18;13.23;;;6.07;;
20890;SDS011;10605;52.968;8.844;2022-10-30T12:26:45;17.30;;;6.80;;
20890;SDS011;10605;52.968;8.844;2022-10-30T12:32:54;17.25;;;7.15;;
20890;SDS011;10605;52.968;8.844;2022-10-30T12:35:53;19.15;;;7.05;;
20890;SDS011;10605;52.968;8.844;2022-10-30T12:38:59;9.95;;;6.60;;
20890;SDS011;10605;52.968;8.844;2022-10-30T12:42:29;18.90;;;7.28;;
20890;SDS011;10605;52.968;8.844;2022-10-30T12:45:23;22.38;;;6.88;;
20890;SDS011;10605;52.968;8.844;2022-10-30T12:50:37;15.07;;;7.18;;
20890;SDS011;10605;52.968;8.844;2022-10-30T12:53:06;15.38;;;7.63;;
20890;SDS011;10605;52.968;8.844;2022-10-30T12:55:54;20.70;;;7.13;;
20890;SDS011;10605;52.968;8.844;2022-10-30T12:58:55;22.33;;;7.88;;
20890;SDS011;10605;52.968;8.844;2022-10-30T13:01:48;15.25;;;7.40;;
20890;SDS011;10605;52.968;8.844;2022-10-30T13:04:41;20.17;;;7.05;;
20890;SDS011;10605;52.968;8.844;2022-10-30T13:07:30;16.02;;;7.50;;
20890;SDS011;10605;52.968;8.844;2022-10-30T13:16:58;21.20;;;8.35;;
20890;SDS011;10605;52.968;8.844;2022-10-30T13:19:23;18.98;;;7.28;;
20890;SDS011;10605;52.968;8.844;2022-10-30T13:52:59;16.23;;;7.20;;
20890;SDS011;10605;52.968;8.844;2022-10-30T13:56:30;11.07;;;7.07;;
20890;SDS011;10605;52.968;8.844;2022-10-30T13:59:10;19.38;;;8.00;;
20890;SDS011;10605;52.968;8.844;2022-10-30T14:30:20;17.70;;;7.70;;
20890;SDS011;10605;52.968;8.844;2022-10-30T14:39:43;24.85;;;7.65;;
20890;SDS011;10605;52.968;8.844;2022-10-30T15:03:40;22.17;;;7.90;;
20890;SDS011;10605;52.968;8.844;2022-10-30T15:29:25;18.67;;;8.70;;
20890;SDS011;10605;52.968;8.844;2022-10-30T15:32:39;14.20;;;8.07;;
20890;SDS011;10605;52.968;8.844;2022-10-30T15:35:20;15.70;;;8.90;;
20890;SDS011;10605;52.968;8.844;2022-10-30T15:59:20;22.08;;;10.15;;
20890;SDS011;10605;52.968;8.844;2022-10-30T16:02:00;18.17;;;10.00;;
20890;SDS011;10605;52.968;8.844;2022-10-30T16:04:34;14.65;;;9.48;;
20890;SDS011;10605;52.968;8.844;2022-10-30T16:07:19;21.73;;;9.20;;
20890;SDS011;10605;52.968;8.844;2022-10-30T16:09:54;14.55;;;9.48;;
20890;SDS011;10605;52.968;8.844;2022-10-30T16:12:44;16.25;;;9.95;;
20890;SDS011;10605;52.968;8.844;2022-10-30T16:18:30;22.45;;;11.45;;
20890;SDS011;10605;52.968;8.844;2022-10-30T16:21:13;24.05;;;11.40;;
20890;SDS011;10605;52.968;8.844;2022-10-30T16:27:06;25.65;;;10.55;;
20890;SDS011;10605;52.968;8.844;2022-10-30T16:30:45;22.65;;;10.32;;
20890;SDS011;10605;52.968;8.844;2022-10-30T16:33:44;15.43;;;11.10;;
20890;SDS011;10605;52.968;8.844;2022-10-30T16:36:14;21.17;;;11.20;;
20890;SDS011;10605;52.968;8.844;2022-10-30T16:38:42;21.85;;;11.13;;
20890;SDS011;10605;52.968;8.844;2022-10-30T16:41:11;20.60;;;11.50;;
20890;SDS011;10605;52.968;8.844;2022-10-30T16:43:38;21.33;;;11.10;;
20890;SDS011;10605;52.968;8.844;2022-10-30T16:48:55;21.83;;;12.15;;
20890;SDS011;10605;52.968;8.844;2022-10-30T16:51:26;29.73;;;12.60;;
20890;SDS011;10605;52.968;8.844;2022-10-30T16:53:52;22.60;;;13.30;;
20890;SDS011;10605;52.968;8.844;2022-10-30T16:56:22;38.80;;;13.27;;
20890;SDS011;10605;52.968;8.844;2022-10-30T16:58:50;18.15;;;12.65;;
20890;SDS011;10605;52.968;8.844;2022-10-30T17:01:20;28.83;;;13.52;;
20890;SDS011;10605;52.968;8.844;2022-10-30T17:03:49;23.38;;;13.25;;
20890;SDS011;10605;52.968;8.844;2022-10-30T17:09:19;31.05;;;13.02;;
20890;SDS011;10605;52.968;8.844;2022-10-30T17:11:59;27.85;;;13.63;;
20890;SDS011;10605;52.968;8.844;2022-10-30T17:14:39;22.05;;;12.27;;
20890;SDS011;10605;52.968;8.844;2022-10-30T17:17:21;30.60;;;12.95;;
20890;SDS011;10605;52.968;8.844;2022-10-30T17:20:03;23.33;;;13.63;;
20890;SDS011;10605;52.968;8.844;2022-10-30T17:22:35;22.55;;;12.05;;
20890;SDS011;10605;52.968;8.844;2022-10-30T17:25:27;26.08;;;13.50;;
20890;SDS011;10605;52.968;8.844;2022-10-30T17:27:49;27.98;;;13.10;;
20890;SDS011;10605;52.968;8.844;2022-10-30T17:30:29;22.77;;;12.60;;
20890;SDS011;10605;52.968;8.844;2022-10-30T17:33:21;21.98;;;12.27;;
20890;SDS011;10605;52.968;8.844;2022-10-30T17:35:49;23.45;;;12.95;;
20890;SDS011;10605;52.968;8.844;2022-10-30T17:38:15;19.88;;;12.70;;
20890;SDS011;10605;52.968;8.844;2022-10-30T17:40:41;24.77;;;14.02;;
20890;SDS011;10605;52.968;8.844;2022-10-30T17:43:09;28.45;;;14.63;;
20890;SDS011;10605;52.968;8.844;2022-10-30T17:45:42;25.38;;;17.25;;
20890;SDS011;10605;52.968;8.844;2022-10-30T17:48:15;33.45;;;17.90;;
20890;SDS011;10605;52.968;8.844;2022-10-30T17:50:42;30.75;;;17.80;;
20890;SDS011;10605;52.968;8.844;2022-10-30T17:53:15;27.65;;;15.98;;
20890;SDS011;10605;52.968;8.844;2022-10-30T17:58:52;19.42;;;15.38;;
20890;SDS011;10605;52.968;8.844;2022-10-30T18:01:19;23.77;;;15.05;;
20890;SDS011;10605;52.968;8.844;2022-10-30T18:03:48;34.40;;;16.25;;
20890;SDS011;10605;52.968;8.844;2022-10-30T18:06:18;26.35;;;14.90;;
20890;SDS011;10605;52.968;8.844;2022-10-30T18:08:50;22.23;;;13.15;;
20890;SDS011;10605;52.968;8.844;2022-10-30T18:11:17;18.50;;;12.93;;
20890;SDS011;10605;52.968;8.844;2022-10-30T18:13:48;25.92;;;12.65;;
20890;SDS011;10605;52.968;8.844;2022-10-30T18:16:15;16.70;;;12.30;;
20890;SDS011;10605;52.968;8.844;2022-10-30T18:18:42;24.83;;;13.40;;
20890;SDS011;10605;52.968;8.844;2022-10-30T18:21:12;29.00;;;13.65;;
20890;SDS011;10605;52.968;8.844;2022-10-30T18:23:40;23.10;;;14.90;;
20890;SDS011;10605;52.968;8.844;2022-10-30T18:26:12;31.77;;;15.45;;
20890;SDS011;10605;52.968;8.844;2022-10-30T18:28:42;33.60;;;15.85;;
20890;SDS011;10605;52.968;8.844;2022-10-30T18:31:09;28.50;;;17.42;;
20890;SDS011;10605;52.968;8.844;2022-10-30T18:33:37;28.55;;;18.17;;
20890;SDS011;10605;52.968;8.844;2022-10-30T18:36:04;28.40;;;17.05;;
20890;SDS011;10605;52.968;8.844;2022-10-30T18:38:35;32.38;;;17.13;;
20890;SDS011;10605;52.968;8.844;2022-10-30T18:41:00;27.80;;;15.15;;
20890;SDS011;10605;52.968;8.844;2022-10-30T18:43:27;23.80;;;15.65;;
20890;SDS011;10605;52.968;8.844;2022-10-30T18:45:52;20.98;;;14.88;;
20890;SDS011;10605;52.968;8.844;2022-10-30T18:48:18;30.65;;;15.40;;
20890;SDS011;10605;52.968;8.844;2022-10-30T18:50:44;24.05;;;14.85;;
20890;SDS011;10605;52.968;8.844;2022-10-30T18:53:16;25.25;;;15.52;;
20890;SDS011;10605;52.968;8.844;2022-10-30T18:55:42;23.90;;;15.77;;
20890;SDS011;10605;52.968;8.844;2022-10-30T18:58:09;21.50;;;14.68;;
20890;SDS011;10605;52.968;8.844;2022-10-30T19:00:36;17.98;;;13.98;;
20890;SDS011;10605;52.968;8.844;2022-10-30T19:03:04;24.60;;;14.60;;
20890;SDS011;10605;52.968;8.844;2022-10-30T19:07:59;10.20;;;9.02;;
20890;SDS011;10605;52.968;8.844;2022-10-30T19:10:26;102.20;;;10.73;;
20890;SDS011;10605;52.968;8.844;2022-10-30T19:13:01;9.15;;;8.23;;
20890;SDS011;10605;52.968;8.844;2022-10-30T19:15:29;10.55;;;9.55;;
20890;SDS011;10605;52.968;8.844;2022-10-30T19:17:59;16.17;;;11.43;;
20890;SDS011;10605;52.968;8.844;2022-10-30T19:20:25;13.52;;;11.80;;
20890;SDS011;10605;52.968;8.844;2022-10-30T19:22:52;18.55;;;12.68;;
20890;SDS011;10605;52.968;8.844;2022-10-30T19:25:19;21.50;;;13.93;;
20890;SDS011;10605;52.968;8.844;2022-10-30T19:27:53;22.80;;;13.85;;
20890;SDS011;10605;52.968;8.844;2022-10-30T19:30:19;14.73;;;13.18;;
20890;SDS011;10605;52.968;8.844;2022-10-30T19:32:46;20.55;;;14.88;;
20890;SDS011;10605;52.968;8.844;2022-10-30T19:35:13;25.27;;;18.33;;
20890;SDS011;10605;52.968;8.844;2022-10-30T19:37:40;29.05;;;17.40;;
20890;SDS011;10605;52.968;8.844;2022-10-30T19:40:26;21.45;;;15.63;;
20890;SDS011;10605;52.968;8.844;2022-10-30T19:42:59;19.23;;;15.40;;
20890;SDS011;10605;52.968;8.844;2022-10-30T19:45:25;18.38;;;13.93;;
20890;SDS011;10605;52.968;8.844;2022-10-30T19:47:56;17.50;;;13.25;;
20890;SDS011;10605;52.968;8.844;2022-10-30T19:52:58;24.30;;;14.93;;
20890;SDS011;10605;52.968;8.844;2022-10-30T19:55:25;21.35;;;15.00;;
20890;SDS011;10605;52.968;8.844;2022-10-30T19:57:53;22.55;;;14.80;;
20890;SDS011;10605;52.968;8.844;2022-10-30T20:02:48;21.20;;;15.95;;
20890;SDS011;10605;52.968;8.844;2022-10-30T20:05:16;21.63;;;14.77;;
20890;SDS011;10605;52.968;8.844;2022-10-30T20:07:42;21.73;;;16.05;;
20890;SDS011;10605;52.968;8.844;2022-10-30T20:10:18;18.23;;;15.75;;
20890;SDS011;10605;52.968;8.844;2022-10-30T20:12:44;25.67;;;16.85;;